Terminal Aerodrome Forecast
Issued by NWS

Home | Current Version | Previous Version | Text Only | Print | Product List | Glossary On
Versions: 1 2 3 4 5 6 7 8 9 10 11 12 13 14
000
FTUS45 KGJT 242334
TAFTEX
TAF
KTEX 242334Z 2500/2524 26010KT P6SM SKC
     FM250300 13005KT P6SM SKC
     FM251500 VRB03KT P6SM SKC
     FM251800 28007KT P6SM FEW110=

USA.gov is the U.S. government's official web portal to all federal, state and local government web resources and services.